sensor_id;sensor_type;location;lat;lon;timestamp;pressure;altitude;pressure_sealevel;temperature;humidity
45275;BME280;31019;43.780;25.948;2023-09-19T00:01:33;101490.53;;;15.13;100.00
45275;BME280;31019;43.780;25.948;2023-09-19T00:04:01;101503.06;;;14.29;100.00
45275;BME280;31019;43.780;25.948;2023-09-19T00:06:29;101486.03;;;14.75;100.00
45275;BME280;31019;43.780;25.948;2023-09-19T00:08:57;101474.69;;;14.80;100.00
45275;BME280;31019;43.780;25.948;2023-09-19T00:11:26;101486.97;;;14.56;100.00
45275;BME280;31019;43.780;25.948;2023-09-19T00:13:53;101481.59;;;13.97;100.00
45275;BME280;31019;43.780;25.948;2023-09-19T00:16:20;101480.88;;;14.29;100.00
45275;BME280;31019;43.780;25.948;2023-09-19T00:18:47;101472.06;;;14.21;100.00
45275;BME280;31019;43.780;25.948;2023-09-19T00:21:16;101476.34;;;14.29;100.00
45275;BME280;31019;43.780;25.948;2023-09-19T00:23:44;101474.16;;;14.06;100.00
45275;BME280;31019;43.780;25.948;2023-09-19T00:26:12;101477.72;;;13.73;100.00
45275;BME280;31019;43.780;25.948;2023-09-19T00:28:39;101476.09;;;13.72;100.00
45275;BME280;31019;43.780;25.948;2023-09-19T00:31:07;101480.22;;;13.75;100.00
45275;BME280;31019;43.780;25.948;2023-09-19T00:33:35;101480.41;;;13.80;100.00
45275;BME280;31019;43.780;25.948;2023-09-19T00:36:02;101473.00;;;13.82;100.00
45275;BME280;31019;43.780;25.948;2023-09-19T00:38:32;101471.56;;;13.86;100.00
45275;BME280;31019;43.780;25.948;2023-09-19T00:41:02;101481.66;;;13.64;100.00
45275;BME280;31019;43.780;25.948;2023-09-19T00:43:29;101483.91;;;13.61;100.00
45275;BME280;31019;43.780;25.948;2023-09-19T00:46:00;101486.16;;;13.70;100.00
45275;BME280;31019;43.780;25.948;2023-09-19T00:48:28;101486.19;;;13.57;100.00
45275;BME280;31019;43.780;25.948;2023-09-19T00:50:57;101489.91;;;13.56;100.00
45275;BME280;31019;43.780;25.948;2023-09-19T00:53:26;101483.53;;;13.44;100.00
45275;BME280;31019;43.780;25.948;2023-09-19T00:55:55;101484.16;;;13.26;100.00
45275;BME280;31019;43.780;25.948;2023-09-19T00:58:22;101495.19;;;13.16;100.00
45275;BME280;31019;43.780;25.948;2023-09-19T01:00:49;101489.25;;;13.21;100.00
45275;BME280;31019;43.780;25.948;2023-09-19T01:03:18;101498.06;;;13.08;100.00
45275;BME280;31019;43.780;25.948;2023-09-19T01:05:45;101487.16;;;12.96;100.00
45275;BME280;31019;43.780;25.948;2023-09-19T01:08:12;101486.34;;;12.96;100.00
45275;BME280;31019;43.780;25.948;2023-09-19T01:10:46;101475.69;;;12.96;100.00
45275;BME280;31019;43.780;25.948;2023-09-19T01:13:23;101478.59;;;12.33;100.00
45275;BME280;31019;43.780;25.948;2023-09-19T01:16:01;101477.22;;;12.57;100.00
45275;BME280;31019;43.780;25.948;2023-09-19T01:18:47;101467.16;;;11.69;100.00
45275;BME280;31019;43.780;25.948;2023-09-19T01:21:25;101473.78;;;12.15;100.00
45275;BME280;31019;43.780;25.948;2023-09-19T01:24:21;101476.19;;;12.58;100.00
45275;BME280;31019;43.780;25.948;2023-09-19T01:27:06;101466.16;;;12.47;100.00
45275;BME280;31019;43.780;25.948;2023-09-19T01:29:44;101464.94;;;12.01;100.00
45275;BME280;31019;43.780;25.948;2023-09-19T01:32:17;101462.69;;;11.77;100.00
45275;BME280;31019;43.780;25.948;2023-09-19T01:34:47;101468.75;;;11.92;100.00
45275;BME280;31019;43.780;25.948;2023-09-19T01:37:16;101467.50;;;12.29;100.00
45275;BME280;31019;43.780;25.948;2023-09-19T01:39:46;101456.31;;;12.47;100.00
45275;BME280;31019;43.780;25.948;2023-09-19T01:42:24;101460.78;;;12.40;100.00
45275;BME280;31019;43.780;25.948;2023-09-19T01:45:03;101455.91;;;12.50;100.00
45275;BME280;31019;43.780;25.948;2023-09-19T01:47:34;101461.56;;;12.34;100.00
45275;BME280;31019;43.780;25.948;2023-09-19T01:50:10;101462.69;;;12.05;100.00
45275;BME280;31019;43.780;25.948;2023-09-19T01:52:45;101462.81;;;11.90;100.00
45275;BME280;31019;43.780;25.948;2023-09-19T01:55:14;101458.22;;;12.12;100.00
45275;BME280;31019;43.780;25.948;2023-09-19T01:57:48;101457.03;;;12.21;100.00
45275;BME280;31019;43.780;25.948;2023-09-19T02:00:20;101451.41;;;12.03;100.00
45275;BME280;31019;43.780;25.948;2023-09-19T02:02:51;101454.13;;;11.81;100.00
45275;BME280;31019;43.780;25.948;2023-09-19T02:05:22;101440.19;;;10.95;100.00
45275;BME280;31019;43.780;25.948;2023-09-19T02:07:51;101455.16;;;11.24;100.00
45275;BME280;31019;43.780;25.948;2023-09-19T02:10:19;101451.47;;;11.25;100.00
45275;BME280;31019;43.780;25.948;2023-09-19T02:12:46;101454.97;;;11.54;100.00
45275;BME280;31019;43.780;25.948;2023-09-19T02:15:13;101442.47;;;11.48;100.00
45275;BME280;31019;43.780;25.948;2023-09-19T02:17:41;101445.84;;;11.63;100.00
45275;BME280;31019;43.780;25.948;2023-09-19T02:20:11;101452.75;;;11.29;100.00
45275;BME280;31019;43.780;25.948;2023-09-19T02:22:41;101451.13;;;11.07;100.00
45275;BME280;31019;43.780;25.948;2023-09-19T02:25:09;101454.78;;;11.55;100.00
45275;BME280;31019;43.780;25.948;2023-09-19T02:27:36;101445.34;;;11.53;100.00
45275;BME280;31019;43.780;25.948;2023-09-19T02:30:06;101439.31;;;11.65;100.00
45275;BME280;31019;43.780;25.948;2023-09-19T02:32:33;101441.25;;;11.50;100.00
45275;BME280;31019;43.780;25.948;2023-09-19T02:35:02;101439.16;;;11.17;100.00
45275;BME280;31019;43.780;25.948;2023-09-19T02:37:32;101433.94;;;10.81;100.00
45275;BME280;31019;43.780;25.948;2023-09-19T02:40:00;101426.44;;;10.70;100.00
45275;BME280;31019;43.780;25.948;2023-09-19T02:42:28;101426.41;;;10.85;100.00
45275;BME280;31019;43.780;25.948;2023-09-19T02:44:55;101440.00;;;10.53;100.00
45275;BME280;31019;43.780;25.948;2023-09-19T02:47:24;101437.28;;;10.90;100.00
45275;BME280;31019;43.780;25.948;2023-09-19T02:49:52;101451.44;;;11.18;100.00
45275;BME280;31019;43.780;25.948;2023-09-19T02:52:19;101452.53;;;11.31;100.00
45275;BME280;31019;43.780;25.948;2023-09-19T02:54:48;101446.31;;;11.45;100.00
45275;BME280;31019;43.780;25.948;2023-09-19T02:57:16;101457.22;;;11.50;100.00
45275;BME280;31019;43.780;25.948;2023-09-19T02:59:45;101460.44;;;11.45;100.00
45275;BME280;31019;43.780;25.948;2023-09-19T03:02:12;101456.91;;;11.38;100.00
45275;BME280;31019;43.780;25.948;2023-09-19T03:04:39;101449.56;;;10.91;100.00
45275;BME280;31019;43.780;25.948;2023-09-19T03:07:06;101456.84;;;10.16;100.00
45275;BME280;31019;43.780;25.948;2023-09-19T03:09:37;101448.94;;;10.52;100.00
45275;BME280;31019;43.780;25.948;2023-09-19T03:12:05;101446.91;;;10.91;100.00
45275;BME280;31019;43.780;25.948;2023-09-19T03:14:33;101447.16;;;10.96;100.00
45275;BME280;31019;43.780;25.948;2023-09-19T03:17:00;101444.56;;;10.81;100.00
45275;BME280;31019;43.780;25.948;2023-09-19T03:19:30;101449.66;;;11.04;100.00
45275;BME280;31019;43.780;25.948;2023-09-19T03:21:58;101450.56;;;11.11;100.00
45275;BME280;31019;43.780;25.948;2023-09-19T03:24:25;101456.09;;;10.52;100.00
45275;BME280;31019;43.780;25.948;2023-09-19T03:26:52;101460.56;;;10.30;100.00
45275;BME280;31019;43.780;25.948;2023-09-19T03:29:21;101457.03;;;10.44;100.00
45275;BME280;31019;43.780;25.948;2023-09-19T03:31:48;101453.88;;;10.55;100.00
45275;BME280;31019;43.780;25.948;2023-09-19T03:34:15;101454.44;;;10.87;100.00
45275;BME280;31019;43.780;25.948;2023-09-19T03:36:42;101457.63;;;10.83;100.00
45275;BME280;31019;43.780;25.948;2023-09-19T03:39:09;101449.72;;;10.68;100.00
45275;BME280;31019;43.780;25.948;2023-09-19T03:41:36;101459.16;;;10.70;100.00
45275;BME280;31019;43.780;25.948;2023-09-19T03:44:03;101459.78;;;10.72;100.00
45275;BME280;31019;43.780;25.948;2023-09-19T03:46:33;101456.41;;;10.13;100.00
45275;BME280;31019;43.780;25.948;2023-09-19T03:49:01;101451.59;;;10.52;100.00
45275;BME280;31019;43.780;25.948;2023-09-19T03:51:28;101450.41;;;10.55;100.00
45275;BME280;31019;43.780;25.948;2023-09-19T03:53:55;101451.69;;;10.59;100.00
45275;BME280;31019;43.780;25.948;2023-09-19T03:56:22;101455.69;;;9.89;100.00
45275;BME280;31019;43.780;25.948;2023-09-19T03:58:49;101454.94;;;10.25;100.00
45275;BME280;31019;43.780;25.948;2023-09-19T04:01:16;101456.34;;;10.06;100.00
45275;BME280;31019;43.780;25.948;2023-09-19T04:03:45;101443.72;;;9.63;100.00
45275;BME280;31019;43.780;25.948;2023-09-19T04:06:13;101449.03;;;10.08;100.00
45275;BME280;31019;43.780;25.948;2023-09-19T04:08:40;101459.94;;;10.49;100.00
45275;BME280;31019;43.780;25.948;2023-09-19T04:11:07;101445.94;;;10.41;100.00
45275;BME280;31019;43.780;25.948;2023-09-19T04:13:34;101449.47;;;10.41;100.00
45275;BME280;31019;43.780;25.948;2023-09-19T04:16:01;101450.50;;;9.81;100.00
45275;BME280;31019;43.780;25.948;2023-09-19T04:18:29;101456.78;;;9.95;100.00
45275;BME280;31019;43.780;25.948;2023-09-19T04:21:00;101450.63;;;10.24;100.00
45275;BME280;31019;43.780;25.948;2023-09-19T04:23:30;101455.59;;;10.42;100.00
45275;BME280;31019;43.780;25.948;2023-09-19T04:25:57;101452.59;;;10.66;100.00
45275;BME280;31019;43.780;25.948;2023-09-19T04:28:25;101459.22;;;10.77;100.00
45275;BME280;31019;43.780;25.948;2023-09-19T04:30:53;101457.19;;;10.79;100.00
45275;BME280;31019;43.780;25.948;2023-09-19T04:33:20;101455.19;;;10.81;100.00
45275;BME280;31019;43.780;25.948;2023-09-19T04:35:49;101462.03;;;10.90;100.00
45275;BME280;31019;43.780;25.948;2023-09-19T04:38:17;101461.06;;;10.98;100.00
45275;BME280;31019;43.780;25.948;2023-09-19T04:40:44;101459.16;;;11.13;100.00
45275;BME280;31019;43.780;25.948;2023-09-19T04:43:11;101462.56;;;10.86;100.00
45275;BME280;31019;43.780;25.948;2023-09-19T04:45:39;101462.56;;;11.29;100.00
45275;BME280;31019;43.780;25.948;2023-09-19T04:48:06;101467.31;;;11.33;100.00
45275;BME280;31019;43.780;25.948;2023-09-19T04:50:34;101468.19;;;10.54;100.00
45275;BME280;31019;43.780;25.948;2023-09-19T04:53:02;101456.50;;;10.92;100.00
45275;BME280;31019;43.780;25.948;2023-09-19T04:55:31;101469.09;;;11.54;100.00
45275;BME280;31019;43.780;25.948;2023-09-19T04:57:58;101462.22;;;11.95;100.00
45275;BME280;31019;43.780;25.948;2023-09-19T05:00:25;101447.50;;;18.10;100.00
45275;BME280;31019;43.780;25.948;2023-09-19T05:02:56;101418.44;;;21.80;100.00
45275;BME280;31019;43.780;25.948;2023-09-19T05:05:23;101417.53;;;22.32;100.00
45275;BME280;31019;43.780;25.948;2023-09-19T05:07:51;101421.22;;;19.75;100.00
45275;BME280;31019;43.780;25.948;2023-09-19T05:10:19;101413.78;;;16.84;100.00
45275;BME280;31019;43.780;25.948;2023-09-19T05:12:48;101416.59;;;13.59;100.00
45275;BME280;31019;43.780;25.948;2023-09-19T05:15:17;101430.78;;;13.33;100.00
45275;BME280;31019;43.780;25.948;2023-09-19T05:17:48;101444.50;;;13.03;100.00
45275;BME280;31019;43.780;25.948;2023-09-19T05:20:15;101431.78;;;13.05;100.00
45275;BME280;31019;43.780;25.948;2023-09-19T05:22:49;101429.94;;;13.05;100.00
45275;BME280;31019;43.780;25.948;2023-09-19T05:25:16;101431.81;;;13.32;100.00
45275;BME280;31019;43.780;25.948;2023-09-19T05:27:43;101427.06;;;13.54;100.00
45275;BME280;31019;43.780;25.948;2023-09-19T05:30:13;101422.09;;;13.70;100.00
45275;BME280;31019;43.780;25.948;2023-09-19T05:32:41;101430.47;;;13.87;100.00
45275;BME280;31019;43.780;25.948;2023-09-19T05:35:09;101424.53;;;13.79;100.00
45275;BME280;31019;43.780;25.948;2023-09-19T05:37:38;101431.81;;;14.16;100.00
45275;BME280;31019;43.780;25.948;2023-09-19T05:40:06;101432.41;;;14.18;100.00
45275;BME280;31019;43.780;25.948;2023-09-19T05:42:35;101430.41;;;14.59;100.00
45275;BME280;31019;43.780;25.948;2023-09-19T05:45:04;101423.03;;;14.79;100.00
45275;BME280;31019;43.780;25.948;2023-09-19T05:47:33;101416.25;;;15.08;100.00
45275;BME280;31019;43.780;25.948;2023-09-19T05:50:02;101423.00;;;15.36;100.00
45275;BME280;31019;43.780;25.948;2023-09-19T05:52:30;101419.59;;;15.04;100.00
45275;BME280;31019;43.780;25.948;2023-09-19T05:54:58;101416.28;;;15.27;100.00
45275;BME280;31019;43.780;25.948;2023-09-19T05:57:25;101419.16;;;15.50;100.00
45275;BME280;31019;43.780;25.948;2023-09-19T05:59:56;101413.22;;;16.22;100.00
45275;BME280;31019;43.780;25.948;2023-09-19T06:02:22;101396.31;;;17.64;100.00
45275;BME280;31019;43.780;25.948;2023-09-19T06:04:55;101394.44;;;16.94;100.00
45275;BME280;31019;43.780;25.948;2023-09-19T06:07:22;101401.75;;;16.45;100.00
45275;BME280;31019;43.780;25.948;2023-09-19T06:09:51;101395.03;;;16.54;100.00
45275;BME280;31019;43.780;25.948;2023-09-19T06:12:19;101397.22;;;16.87;100.00
45275;BME280;31019;43.780;25.948;2023-09-19T06:14:45;101400.88;;;17.16;100.00
45275;BME280;31019;43.780;25.948;2023-09-19T06:17:13;101393.28;;;17.25;100.00
45275;BME280;31019;43.780;25.948;2023-09-19T06:19:41;101388.97;;;17.36;100.00
45275;BME280;31019;43.780;25.948;2023-09-19T06:22:10;101393.22;;;17.72;100.00
45275;BME280;31019;43.780;25.948;2023-09-19T06:24:37;101391.84;;;17.81;100.00
45275;BME280;31019;43.780;25.948;2023-09-19T06:27:07;101390.31;;;17.85;100.00
45275;BME280;31019;43.780;25.948;2023-09-19T06:29:34;101391.53;;;18.35;100.00
45275;BME280;31019;43.780;25.948;2023-09-19T06:32:07;101391.38;;;18.42;100.00
45275;BME280;31019;43.780;25.948;2023-09-19T06:34:37;101385.78;;;18.43;100.00
45275;BME280;31019;43.780;25.948;2023-09-19T06:37:10;101388.19;;;18.73;100.00
45275;BME280;31019;43.780;25.948;2023-09-19T06:39:37;101387.16;;;18.91;100.00
45275;BME280;31019;43.780;25.948;2023-09-19T06:42:04;101389.91;;;18.80;100.00
45275;BME280;31019;43.780;25.948;2023-09-19T06:44:31;101384.34;;;19.20;100.00
45275;BME280;31019;43.780;25.948;2023-09-19T06:46:58;101381.88;;;19.57;100.00
45275;BME280;31019;43.780;25.948;2023-09-19T06:49:25;101380.66;;;19.87;100.00
45275;BME280;31019;43.780;25.948;2023-09-19T06:51:54;101379.16;;;19.96;100.00
45275;BME280;31019;43.780;25.948;2023-09-19T06:54:24;101378.25;;;20.12;100.00
45275;BME280;31019;43.780;25.948;2023-09-19T06:56:51;101385.63;;;19.95;100.00
45275;BME280;31019;43.780;25.948;2023-09-19T06:59:20;101377.25;;;20.46;100.00
45275;BME280;31019;43.780;25.948;2023-09-19T07:01:50;101368.00;;;21.01;100.00
45275;BME280;31019;43.780;25.948;2023-09-19T07:04:17;101371.44;;;20.91;100.00
45275;BME280;31019;43.780;25.948;2023-09-19T07:06:49;101370.47;;;20.70;100.00
45275;BME280;31019;43.780;25.948;2023-09-19T07:09:16;101367.53;;;21.14;100.00
45275;BME280;31019;43.780;25.948;2023-09-19T07:11:46;101356.44;;;21.58;100.00
45275;BME280;31019;43.780;25.948;2023-09-19T07:14:13;101357.22;;;21.54;100.00
45275;BME280;31019;43.780;25.948;2023-09-19T07:16:40;101359.47;;;21.72;100.00
45275;BME280;31019;43.780;25.948;2023-09-19T07:19:10;101353.56;;;21.85;100.00
45275;BME280;31019;43.780;25.948;2023-09-19T07:21:36;101352.59;;;22.17;100.00
45275;BME280;31019;43.780;25.948;2023-09-19T07:24:07;101353.69;;;22.21;100.00
45275;BME280;31019;43.780;25.948;2023-09-19T07:26:37;101351.28;;;22.71;100.00
45275;BME280;31019;43.780;25.948;2023-09-19T07:29:06;101355.84;;;22.85;100.00
45275;BME280;31019;43.780;25.948;2023-09-19T07:31:34;101351.50;;;23.05;100.00
45275;BME280;31019;43.780;25.948;2023-09-19T07:34:01;101340.69;;;22.74;100.00
45275;BME280;31019;43.780;25.948;2023-09-19T07:36:29;101338.28;;;22.68;100.00
45275;BME280;31019;43.780;25.948;2023-09-19T07:38:56;101338.25;;;22.98;100.00
45275;BME280;31019;43.780;25.948;2023-09-19T07:41:23;101330.66;;;23.05;100.00
45275;BME280;31019;43.780;25.948;2023-09-19T07:43:51;101319.81;;;23.05;100.00
45275;BME280;31019;43.780;25.948;2023-09-19T07:46:19;101323.19;;;23.47;100.00
45275;BME280;31019;43.780;25.948;2023-09-19T07:48:46;101320.78;;;23.45;100.00
45275;BME280;31019;43.780;25.948;2023-09-19T13:49:17;101053.19;;;30.53;43.06
45275;BME280;31019;43.780;25.948;2023-09-19T13:51:44;101046.31;;;31.10;35.68
45275;BME280;31019;43.780;25.948;2023-09-19T13:54:13;101041.41;;;30.82;36.73
45275;BME280;31019;43.780;25.948;2023-09-19T13:56:40;101039.72;;;30.69;36.18
45275;BME280;31019;43.780;25.948;2023-09-19T13:59:08;101044.06;;;30.10;34.84
45275;BME280;31019;43.780;25.948;2023-09-19T14:01:35;101045.28;;;29.92;37.20
45275;BME280;31019;43.780;25.948;2023-09-19T14:04:02;101055.59;;;30.54;38.20
45275;BME280;31019;43.780;25.948;2023-09-19T14:06:30;101038.69;;;30.73;42.26
45275;BME280;31019;43.780;25.948;2023-09-19T14:08:58;101042.16;;;30.41;36.54
45275;BME280;31019;43.780;25.948;2023-09-19T14:11:26;101040.16;;;30.29;37.68
45275;BME280;31019;43.780;25.948;2023-09-19T14:13:53;101032.25;;;30.19;38.03
45275;BME280;31019;43.780;25.948;2023-09-19T14:16:20;101029.66;;;29.45;36.81
45275;BME280;31019;43.780;25.948;2023-09-19T14:18:48;101034.06;;;30.15;37.50
45275;BME280;31019;43.780;25.948;2023-09-19T14:21:15;101027.78;;;30.44;40.40
45275;BME280;31019;43.780;25.948;2023-09-19T14:23:43;101029.81;;;29.96;36.50
45275;BME280;31019;43.780;25.948;2023-09-19T14:26:11;101030.09;;;30.03;40.07
45275;BME280;31019;43.780;25.948;2023-09-19T14:28:38;101028.34;;;29.99;38.43
45275;BME280;31019;43.780;25.948;2023-09-19T14:31:07;101023.75;;;29.17;39.42
45275;BME280;31019;43.780;25.948;2023-09-19T14:33:34;101019.66;;;29.41;38.52
45275;BME280;31019;43.780;25.948;2023-09-19T14:36:05;101030.19;;;29.04;42.31
45275;BME280;31019;43.780;25.948;2023-09-19T14:38:34;101031.59;;;28.01;42.95
45275;BME280;31019;43.780;25.948;2023-09-19T14:41:03;101037.88;;;27.70;45.19
45275;BME280;31019;43.780;25.948;2023-09-19T14:43:31;101031.47;;;27.44;48.28
45275;BME280;31019;43.780;25.948;2023-09-19T14:46:02;101032.88;;;27.32;49.60
45275;BME280;31019;43.780;25.948;2023-09-19T14:48:29;101037.16;;;27.11;50.97
45275;BME280;31019;43.780;25.948;2023-09-19T14:51:01;101027.94;;;26.48;51.04
45275;BME280;31019;43.780;25.948;2023-09-19T14:53:29;101041.06;;;26.32;53.58
45275;BME280;31019;43.780;25.948;2023-09-19T14:55:56;101034.84;;;25.90;62.98
45275;BME280;31019;43.780;25.948;2023-09-19T14:58:24;101036.16;;;26.20;68.30
45275;BME280;31019;43.780;25.948;2023-09-19T15:01:02;101032.31;;;25.94;63.77
45275;BME280;31019;43.780;25.948;2023-09-19T15:03:29;101030.44;;;25.75;68.63
45275;BME280;31019;43.780;25.948;2023-09-19T15:05:59;101043.59;;;26.01;65.78
45275;BME280;31019;43.780;25.948;2023-09-19T15:08:27;101031.28;;;26.03;71.39
45275;BME280;31019;43.780;25.948;2023-09-19T15:10:54;101034.22;;;25.47;75.77
45275;BME280;31019;43.780;25.948;2023-09-19T15:13:21;101038.31;;;25.30;72.86
45275;BME280;31019;43.780;25.948;2023-09-19T15:15:50;101038.00;;;25.32;72.85
45275;BME280;31019;43.780;25.948;2023-09-19T15:18:17;101034.25;;;25.61;76.74
45275;BME280;31019;43.780;25.948;2023-09-19T15:20:45;101034.84;;;25.57;74.59
45275;BME280;31019;43.780;25.948;2023-09-19T15:23:13;101030.75;;;25.41;78.10
45275;BME280;31019;43.780;25.948;2023-09-19T15:25:47;101035.06;;;25.09;84.12
45275;BME280;31019;43.780;25.948;2023-09-19T15:28:15;101016.75;;;25.34;88.03
45275;BME280;31019;43.780;25.948;2023-09-19T15:30:43;101026.69;;;25.25;88.00
45275;BME280;31019;43.780;25.948;2023-09-19T15:33:11;101019.72;;;25.19;93.18
45275;BME280;31019;43.780;25.948;2023-09-19T15:35:38;101029.13;;;25.07;100.00
45275;BME280;31019;43.780;25.948;2023-09-19T15:38:05;101029.13;;;24.70;100.00
45275;BME280;31019;43.780;25.948;2023-09-19T15:40:33;101031.41;;;24.81;100.00
45275;BME280;31019;43.780;25.948;2023-09-19T15:43:00;101029.34;;;24.92;100.00
45275;BME280;31019;43.780;25.948;2023-09-19T15:45:28;101028.03;;;24.71;100.00
45275;BME280;31019;43.780;25.948;2023-09-19T15:47:54;101026.84;;;24.58;100.00
45275;BME280;31019;43.780;25.948;2023-09-19T15:50:23;101033.72;;;23.78;100.00
45275;BME280;31019;43.780;25.948;2023-09-19T15:52:53;101027.50;;;24.26;100.00
45275;BME280;31019;43.780;25.948;2023-09-19T15:55:21;101021.72;;;24.32;100.00
45275;BME280;31019;43.780;25.948;2023-09-19T15:57:48;101023.63;;;24.32;100.00
45275;BME280;31019;43.780;25.948;2023-09-19T16:00:15;101027.47;;;23.48;100.00
45275;BME280;31019;43.780;25.948;2023-09-19T16:02:48;101029.50;;;23.62;100.00
45275;BME280;31019;43.780;25.948;2023-09-19T16:05:16;101035.94;;;24.00;100.00
45275;BME280;31019;43.780;25.948;2023-09-19T16:07:44;101031.94;;;23.92;100.00
45275;BME280;31019;43.780;25.948;2023-09-19T16:10:12;101030.63;;;23.90;100.00
45275;BME280;31019;43.780;25.948;2023-09-19T16:12:39;101027.03;;;23.65;100.00
45275;BME280;31019;43.780;25.948;2023-09-19T16:15:07;101033.03;;;23.33;100.00
45275;BME280;31019;43.780;25.948;2023-09-19T16:17:36;101041.63;;;23.06;100.00
45275;BME280;31019;43.780;25.948;2023-09-19T16:20:04;101036.28;;;22.96;100.00
45275;BME280;31019;43.780;25.948;2023-09-19T16:22:33;101054.56;;;22.70;100.00
45275;BME280;31019;43.780;25.948;2023-09-19T16:25:13;101055.81;;;22.17;100.00
45275;BME280;31019;43.780;25.948;2023-09-19T16:27:40;101060.69;;;22.15;100.00
45275;BME280;31019;43.780;25.948;2023-09-19T16:30:08;101071.50;;;22.21;100.00
45275;BME280;31019;43.780;25.948;2023-09-19T16:32:35;101062.59;;;22.00;100.00
45275;BME280;31019;43.780;25.948;2023-09-19T16:35:03;101072.38;;;21.85;100.00
45275;BME280;31019;43.780;25.948;2023-09-19T16:37:38;101068.06;;;21.69;100.00
45275;BME280;31019;43.780;25.948;2023-09-19T16:40:21;101066.19;;;21.59;100.00
45275;BME280;31019;43.780;25.948;2023-09-19T16:42:48;101067.81;;;21.50;100.00
45275;BME280;31019;43.780;25.948;2023-09-19T16:45:15;101062.66;;;21.33;100.00
45275;BME280;31019;43.780;25.948;2023-09-19T16:47:42;101079.34;;;21.15;100.00
45275;BME280;31019;43.780;25.948;2023-09-19T16:50:19;101073.13;;;20.99;100.00
45275;BME280;31019;43.780;25.948;2023-09-19T16:52:46;101080.13;;;20.95;100.00
45275;BME280;31019;43.780;25.948;2023-09-19T16:55:13;101079.31;;;20.99;100.00
45275;BME280;31019;43.780;25.948;2023-09-19T16:57:42;101075.53;;;20.95;100.00
45275;BME280;31019;43.780;25.948;2023-09-19T17:00:11;101076.38;;;21.01;100.00
45275;BME280;31019;43.780;25.948;2023-09-19T17:02:39;101089.28;;;20.84;100.00
45275;BME280;31019;43.780;25.948;2023-09-19T17:05:07;101074.66;;;20.69;100.00
45275;BME280;31019;43.780;25.948;2023-09-19T17:07:35;101081.16;;;20.73;100.00
45275;BME280;31019;43.780;25.948;2023-09-19T17:10:05;101081.47;;;20.82;100.00
45275;BME280;31019;43.780;25.948;2023-09-19T17:12:32;101091.56;;;20.49;100.00
45275;BME280;31019;43.780;25.948;2023-09-19T17:15:01;101082.97;;;20.52;100.00
45275;BME280;31019;43.780;25.948;2023-09-19T17:17:28;101085.66;;;20.52;100.00
45275;BME280;31019;43.780;25.948;2023-09-19T17:20:03;101089.66;;;20.50;100.00
45275;BME280;31019;43.780;25.948;2023-09-19T17:22:30;101094.41;;;20.32;100.00
45275;BME280;31019;43.780;25.948;2023-09-19T17:24:57;101086.03;;;20.29;100.00
45275;BME280;31019;43.780;25.948;2023-09-19T17:27:24;101093.47;;;20.06;100.00
45275;BME280;31019;43.780;25.948;2023-09-19T17:29:53;101088.09;;;20.06;100.00
45275;BME280;31019;43.780;25.948;2023-09-19T17:32:23;101092.91;;;20.04;100.00
45275;BME280;31019;43.780;25.948;2023-09-19T17:34:51;101091.84;;;20.05;100.00
45275;BME280;31019;43.780;25.948;2023-09-19T17:37:18;101092.19;;;19.77;100.00
45275;BME280;31019;43.780;25.948;2023-09-19T17:39:45;101094.94;;;19.87;100.00
45275;BME280;31019;43.780;25.948;2023-09-19T17:42:12;101089.59;;;19.60;100.00
45275;BME280;31019;43.780;25.948;2023-09-19T17:44:39;101099.31;;;19.61;100.00
45275;BME280;31019;43.780;25.948;2023-09-19T17:47:06;101102.34;;;19.64;100.00
45275;BME280;31019;43.780;25.948;2023-09-19T17:49:35;101103.22;;;19.75;100.00
45275;BME280;31019;43.780;25.948;2023-09-19T17:52:01;101100.13;;;19.61;100.00
45275;BME280;31019;43.780;25.948;2023-09-19T17:54:30;101107.66;;;19.32;100.00
45275;BME280;31019;43.780;25.948;2023-09-19T17:56:58;101106.69;;;19.16;100.00
45275;BME280;31019;43.780;25.948;2023-09-19T17:59:27;101105.97;;;19.26;100.00
45275;BME280;31019;43.780;25.948;2023-09-19T18:01:54;101113.50;;;19.24;100.00
45275;BME280;31019;43.780;25.948;2023-09-19T18:04:21;101118.31;;;18.95;100.00
45275;BME280;31019;43.780;25.948;2023-09-19T18:06:49;101114.50;;;19.18;100.00
45275;BME280;31019;43.780;25.948;2023-09-19T18:09:16;101121.81;;;18.95;100.00
45275;BME280;31019;43.780;25.948;2023-09-19T18:11:44;101120.53;;;19.03;100.00
45275;BME280;31019;43.780;25.948;2023-09-19T18:14:40;101124.47;;;18.13;100.00
45275;BME280;31019;43.780;25.948;2023-09-19T18:17:07;101128.72;;;18.69;100.00
45275;BME280;31019;43.780;25.948;2023-09-19T18:19:46;101130.69;;;18.96;100.00
45275;BME280;31019;43.780;25.948;2023-09-19T18:22:28;101122.56;;;19.13;100.00
45275;BME280;31019;43.780;25.948;2023-09-19T18:24:55;101115.84;;;19.15;100.00
45275;BME280;31019;43.780;25.948;2023-09-19T18:27:22;101118.50;;;18.88;100.00
45275;BME280;31019;43.780;25.948;2023-09-19T18:29:49;101113.56;;;18.80;100.00
45275;BME280;31019;43.780;25.948;2023-09-19T18:32:16;101124.34;;;18.41;100.00
45275;BME280;31019;43.780;25.948;2023-09-19T18:34:43;101119.75;;;18.81;100.00
45275;BME280;31019;43.780;25.948;2023-09-19T18:37:10;101119.59;;;18.70;100.00